sensor_id;sensor_type;location;lat;lon;timestamp;temperature;humidity
16901;DHT22;8567;52.540;6.434;2022-07-22T00:00:22;25.10;56.40
16901;DHT22;8567;52.540;6.434;2022-07-22T00:02:49;25.10;56.30
16901;DHT22;8567;52.540;6.434;2022-07-22T00:05:16;25.20;56.20
16901;DHT22;8567;52.540;6.434;2022-07-22T00:07:42;25.20;56.20
16901;DHT22;8567;52.540;6.434;2022-07-22T00:10:10;25.20;56.10
16901;DHT22;8567;52.540;6.434;2022-07-22T00:12:39;25.20;56.10
16901;DHT22;8567;52.540;6.434;2022-07-22T00:15:08;25.20;56.10
16901;DHT22;8567;52.540;6.434;2022-07-22T00:17:35;25.20;55.90
16901;DHT22;8567;52.540;6.434;2022-07-22T00:20:03;25.20;56.00
16901;DHT22;8567;52.540;6.434;2022-07-22T00:22:31;25.20;56.00
16901;DHT22;8567;52.540;6.434;2022-07-22T00:24:58;25.20;56.00
16901;DHT22;8567;52.540;6.434;2022-07-22T00:27:25;25.20;56.10
16901;DHT22;8567;52.540;6.434;2022-07-22T00:29:53;25.20;56.10
16901;DHT22;8567;52.540;6.434;2022-07-22T00:32:20;25.10;56.10
16901;DHT22;8567;52.540;6.434;2022-07-22T00:34:47;25.10;56.00
16901;DHT22;8567;52.540;6.434;2022-07-22T00:37:14;25.10;56.10
16901;DHT22;8567;52.540;6.434;2022-07-22T00:39:41;25.10;56.10
16901;DHT22;8567;52.540;6.434;2022-07-22T00:42:07;25.10;56.20
16901;DHT22;8567;52.540;6.434;2022-07-22T00:44:34;25.10;56.20
16901;DHT22;8567;52.540;6.434;2022-07-22T00:47:03;25.10;56.10
16901;DHT22;8567;52.540;6.434;2022-07-22T00:49:30;25.10;56.10
16901;DHT22;8567;52.540;6.434;2022-07-22T00:51:57;25.10;56.20
16901;DHT22;8567;52.540;6.434;2022-07-22T00:54:24;25.10;56.20
16901;DHT22;8567;52.540;6.434;2022-07-22T00:56:51;25.00;56.20
16901;DHT22;8567;52.540;6.434;2022-07-22T00:59:18;25.10;56.10
16901;DHT22;8567;52.540;6.434;2022-07-22T01:01:45;25.10;56.10
16901;DHT22;8567;52.540;6.434;2022-07-22T01:04:13;25.10;56.10
16901;DHT22;8567;52.540;6.434;2022-07-22T01:06:40;25.10;56.00
16901;DHT22;8567;52.540;6.434;2022-07-22T01:09:11;25.10;56.00
16901;DHT22;8567;52.540;6.434;2022-07-22T01:11:40;25.10;55.90
16901;DHT22;8567;52.540;6.434;2022-07-22T01:14:07;25.20;55.90
16901;DHT22;8567;52.540;6.434;2022-07-22T01:16:34;25.20;55.90
16901;DHT22;8567;52.540;6.434;2022-07-22T01:19:01;25.20;55.80
16901;DHT22;8567;52.540;6.434;2022-07-22T01:21:30;25.20;55.60
16901;DHT22;8567;52.540;6.434;2022-07-22T01:23:57;25.30;55.60
16901;DHT22;8567;52.540;6.434;2022-07-22T01:26:23;25.30;55.60
16901;DHT22;8567;52.540;6.434;2022-07-22T01:28:50;25.30;55.50
16901;DHT22;8567;52.540;6.434;2022-07-22T01:31:17;25.30;55.40
16901;DHT22;8567;52.540;6.434;2022-07-22T01:33:44;25.30;55.50
16901;DHT22;8567;52.540;6.434;2022-07-22T01:36:11;25.30;55.50
16901;DHT22;8567;52.540;6.434;2022-07-22T01:38:39;25.20;55.80
16901;DHT22;8567;52.540;6.434;2022-07-22T01:41:06;25.20;55.60
16901;DHT22;8567;52.540;6.434;2022-07-22T01:43:33;25.20;55.70
16901;DHT22;8567;52.540;6.434;2022-07-22T01:46:00;25.20;55.80
16901;DHT22;8567;52.540;6.434;2022-07-22T01:48:27;25.10;55.80
16901;DHT22;8567;52.540;6.434;2022-07-22T01:50:54;25.20;55.80
16901;DHT22;8567;52.540;6.434;2022-07-22T01:53:20;25.10;55.80
16901;DHT22;8567;52.540;6.434;2022-07-22T01:55:49;25.10;55.80
16901;DHT22;8567;52.540;6.434;2022-07-22T01:58:15;25.10;55.90
16901;DHT22;8567;52.540;6.434;2022-07-22T02:00:42;25.10;55.90
16901;DHT22;8567;52.540;6.434;2022-07-22T02:03:09;25.10;55.90
16901;DHT22;8567;52.540;6.434;2022-07-22T02:05:37;25.10;55.80
16901;DHT22;8567;52.540;6.434;2022-07-22T02:08:06;25.10;55.90
16901;DHT22;8567;52.540;6.434;2022-07-22T02:10:33;25.10;55.80
16901;DHT22;8567;52.540;6.434;2022-07-22T02:13:02;25.10;55.80
16901;DHT22;8567;52.540;6.434;2022-07-22T02:15:29;25.10;55.70
16901;DHT22;8567;52.540;6.434;2022-07-22T02:17:56;25.10;55.80
16901;DHT22;8567;52.540;6.434;2022-07-22T02:20:23;25.10;55.70
16901;DHT22;8567;52.540;6.434;2022-07-22T02:22:50;25.10;55.90
16901;DHT22;8567;52.540;6.434;2022-07-22T02:25:17;25.10;55.80
16901;DHT22;8567;52.540;6.434;2022-07-22T02:27:44;25.10;55.90
16901;DHT22;8567;52.540;6.434;2022-07-22T02:30:12;25.10;55.80
16901;DHT22;8567;52.540;6.434;2022-07-22T02:32:39;25.10;55.80
16901;DHT22;8567;52.540;6.434;2022-07-22T02:35:07;25.10;55.80
16901;DHT22;8567;52.540;6.434;2022-07-22T02:37:34;25.10;55.80
16901;DHT22;8567;52.540;6.434;2022-07-22T02:40:03;25.00;55.80
16901;DHT22;8567;52.540;6.434;2022-07-22T02:42:30;25.00;55.90
16901;DHT22;8567;52.540;6.434;2022-07-22T02:44:57;25.00;55.80
16901;DHT22;8567;52.540;6.434;2022-07-22T02:47:25;25.00;55.80
16901;DHT22;8567;52.540;6.434;2022-07-22T02:49:52;25.10;55.70
16901;DHT22;8567;52.540;6.434;2022-07-22T02:52:19;25.10;55.70
16901;DHT22;8567;52.540;6.434;2022-07-22T02:54:45;25.10;55.80
16901;DHT22;8567;52.540;6.434;2022-07-22T02:57:12;25.00;55.80
16901;DHT22;8567;52.540;6.434;2022-07-22T02:59:39;25.00;55.80
16901;DHT22;8567;52.540;6.434;2022-07-22T03:02:06;25.00;55.80
16901;DHT22;8567;52.540;6.434;2022-07-22T03:04:34;25.00;55.90
16901;DHT22;8567;52.540;6.434;2022-07-22T03:07:00;25.00;55.90
16901;DHT22;8567;52.540;6.434;2022-07-22T03:09:27;24.90;56.10
16901;DHT22;8567;52.540;6.434;2022-07-22T03:11:54;24.90;56.10
16901;DHT22;8567;52.540;6.434;2022-07-22T03:14:21;25.00;55.90
16901;DHT22;8567;52.540;6.434;2022-07-22T03:16:47;25.00;55.90
16901;DHT22;8567;52.540;6.434;2022-07-22T03:19:14;25.00;55.80
16901;DHT22;8567;52.540;6.434;2022-07-22T03:21:42;25.00;55.80
16901;DHT22;8567;52.540;6.434;2022-07-22T03:24:09;25.00;55.70
16901;DHT22;8567;52.540;6.434;2022-07-22T03:26:35;25.00;55.80
16901;DHT22;8567;52.540;6.434;2022-07-22T03:29:02;25.00;55.80
16901;DHT22;8567;52.540;6.434;2022-07-22T03:31:29;25.00;55.80
16901;DHT22;8567;52.540;6.434;2022-07-22T03:33:56;25.00;55.80
16901;DHT22;8567;52.540;6.434;2022-07-22T03:36:24;25.00;55.80
16901;DHT22;8567;52.540;6.434;2022-07-22T03:38:52;25.00;55.80
16901;DHT22;8567;52.540;6.434;2022-07-22T03:41:19;25.00;55.80
16901;DHT22;8567;52.540;6.434;2022-07-22T03:43:45;25.00;55.80
16901;DHT22;8567;52.540;6.434;2022-07-22T03:46:12;25.00;55.80
16901;DHT22;8567;52.540;6.434;2022-07-22T03:48:39;25.00;55.80
16901;DHT22;8567;52.540;6.434;2022-07-22T03:51:06;25.00;55.80
16901;DHT22;8567;52.540;6.434;2022-07-22T03:53:33;24.90;55.80
16901;DHT22;8567;52.540;6.434;2022-07-22T03:56:01;24.90;55.90
16901;DHT22;8567;52.540;6.434;2022-07-22T03:58:28;25.00;55.80
16901;DHT22;8567;52.540;6.434;2022-07-22T04:00:55;24.90;55.80
16901;DHT22;8567;52.540;6.434;2022-07-22T04:03:22;25.00;55.80
16901;DHT22;8567;52.540;6.434;2022-07-22T04:05:48;25.00;55.80
16901;DHT22;8567;52.540;6.434;2022-07-22T04:08:16;25.00;55.60
16901;DHT22;8567;52.540;6.434;2022-07-22T04:10:43;25.00;55.70
16901;DHT22;8567;52.540;6.434;2022-07-22T04:13:11;25.00;55.60
16901;DHT22;8567;52.540;6.434;2022-07-22T04:15:38;25.00;55.60
16901;DHT22;8567;52.540;6.434;2022-07-22T04:18:05;25.00;55.60
16901;DHT22;8567;52.540;6.434;2022-07-22T04:20:32;25.00;55.60
16901;DHT22;8567;52.540;6.434;2022-07-22T04:22:59;25.00;55.50
16901;DHT22;8567;52.540;6.434;2022-07-22T04:25:26;25.00;55.60
16901;DHT22;8567;52.540;6.434;2022-07-22T04:27:53;25.00;55.70
16901;DHT22;8567;52.540;6.434;2022-07-22T04:30:21;24.90;55.70
16901;DHT22;8567;52.540;6.434;2022-07-22T04:32:48;24.90;55.70
16901;DHT22;8567;52.540;6.434;2022-07-22T04:35:14;25.00;55.60
16901;DHT22;8567;52.540;6.434;2022-07-22T04:37:41;24.90;55.80
16901;DHT22;8567;52.540;6.434;2022-07-22T04:40:09;24.90;55.70
16901;DHT22;8567;52.540;6.434;2022-07-22T04:42:36;24.90;55.80
16901;DHT22;8567;52.540;6.434;2022-07-22T04:45:04;24.90;55.70
16901;DHT22;8567;52.540;6.434;2022-07-22T04:47:32;24.90;55.70
16901;DHT22;8567;52.540;6.434;2022-07-22T04:49:59;24.90;55.70
16901;DHT22;8567;52.540;6.434;2022-07-22T04:52:26;24.90;55.80
16901;DHT22;8567;52.540;6.434;2022-07-22T04:54:52;24.90;55.70
16901;DHT22;8567;52.540;6.434;2022-07-22T04:57:19;24.90;55.70
16901;DHT22;8567;52.540;6.434;2022-07-22T04:59:46;24.90;55.70
16901;DHT22;8567;52.540;6.434;2022-07-22T05:02:12;24.90;55.70
16901;DHT22;8567;52.540;6.434;2022-07-22T05:04:40;25.00;55.60
16901;DHT22;8567;52.540;6.434;2022-07-22T05:07:07;25.00;55.50
16901;DHT22;8567;52.540;6.434;2022-07-22T05:09:34;25.00;55.40
16901;DHT22;8567;52.540;6.434;2022-07-22T05:12:01;25.00;55.50
16901;DHT22;8567;52.540;6.434;2022-07-22T05:14:28;25.00;55.40
16901;DHT22;8567;52.540;6.434;2022-07-22T05:16:55;25.00;55.40
16901;DHT22;8567;52.540;6.434;2022-07-22T05:19:21;25.00;55.40
16901;DHT22;8567;52.540;6.434;2022-07-22T05:21:49;25.00;55.40
16901;DHT22;8567;52.540;6.434;2022-07-22T05:24:16;25.00;55.40
16901;DHT22;8567;52.540;6.434;2022-07-22T05:26:43;25.00;55.40
16901;DHT22;8567;52.540;6.434;2022-07-22T05:29:10;25.00;55.40
16901;DHT22;8567;52.540;6.434;2022-07-22T05:31:36;25.00;55.50
16901;DHT22;8567;52.540;6.434;2022-07-22T05:34:03;24.90;55.50
16901;DHT22;8567;52.540;6.434;2022-07-22T05:36:30;25.00;55.50
16901;DHT22;8567;52.540;6.434;2022-07-22T05:38:58;25.00;55.50
16901;DHT22;8567;52.540;6.434;2022-07-22T05:41:25;25.00;55.50
16901;DHT22;8567;52.540;6.434;2022-07-22T05:43:52;25.00;55.50
16901;DHT22;8567;52.540;6.434;2022-07-22T05:46:19;25.00;55.50
16901;DHT22;8567;52.540;6.434;2022-07-22T05:48:45;24.90;55.60
16901;DHT22;8567;52.540;6.434;2022-07-22T05:51:13;25.00;55.60
16901;DHT22;8567;52.540;6.434;2022-07-22T05:53:40;24.90;55.50
16901;DHT22;8567;52.540;6.434;2022-07-22T05:56:09;25.00;55.50
16901;DHT22;8567;52.540;6.434;2022-07-22T05:58:37;24.90;55.50
16901;DHT22;8567;52.540;6.434;2022-07-22T06:01:04;25.00;55.50
16901;DHT22;8567;52.540;6.434;2022-07-22T06:03:31;25.00;55.60
16901;DHT22;8567;52.540;6.434;2022-07-22T06:05:58;25.00;55.50
16901;DHT22;8567;52.540;6.434;2022-07-22T06:08:26;25.00;55.30
16901;DHT22;8567;52.540;6.434;2022-07-22T06:10:53;25.00;55.40
16901;DHT22;8567;52.540;6.434;2022-07-22T06:13:21;25.00;55.40
16901;DHT22;8567;52.540;6.434;2022-07-22T06:15:48;25.00;55.30
16901;DHT22;8567;52.540;6.434;2022-07-22T06:18:15;25.00;55.40
16901;DHT22;8567;52.540;6.434;2022-07-22T06:20:42;25.00;55.30
16901;DHT22;8567;52.540;6.434;2022-07-22T06:23:08;25.00;55.40
16901;DHT22;8567;52.540;6.434;2022-07-22T06:25:36;25.00;55.40
16901;DHT22;8567;52.540;6.434;2022-07-22T06:28:03;25.00;55.40
16901;DHT22;8567;52.540;6.434;2022-07-22T06:30:32;25.00;55.40
16901;DHT22;8567;52.540;6.434;2022-07-22T06:32:58;25.00;55.30
16901;DHT22;8567;52.540;6.434;2022-07-22T06:35:25;25.00;55.30
16901;DHT22;8567;52.540;6.434;2022-07-22T06:37:52;25.00;55.30
16901;DHT22;8567;52.540;6.434;2022-07-22T06:40:20;25.00;55.40
16901;DHT22;8567;52.540;6.434;2022-07-22T06:42:46;25.00;55.30
16901;DHT22;8567;52.540;6.434;2022-07-22T06:45:13;25.00;55.30
16901;DHT22;8567;52.540;6.434;2022-07-22T06:47:41;25.00;55.30
16901;DHT22;8567;52.540;6.434;2022-07-22T06:50:09;25.10;55.30
16901;DHT22;8567;52.540;6.434;2022-07-22T06:52:38;25.10;55.40
16901;DHT22;8567;52.540;6.434;2022-07-22T06:55:07;25.10;55.10
16901;DHT22;8567;52.540;6.434;2022-07-22T06:57:34;25.10;55.10
16901;DHT22;8567;52.540;6.434;2022-07-22T07:00:00;25.10;55.10
16901;DHT22;8567;52.540;6.434;2022-07-22T07:02:27;25.10;55.00
16901;DHT22;8567;52.540;6.434;2022-07-22T07:04:55;25.20;55.00
16901;DHT22;8567;52.540;6.434;2022-07-22T07:07:22;25.10;55.00
16901;DHT22;8567;52.540;6.434;2022-07-22T07:09:49;25.10;55.00
16901;DHT22;8567;52.540;6.434;2022-07-22T07:12:15;25.10;55.00
16901;DHT22;8567;52.540;6.434;2022-07-22T07:14:42;25.10;55.10
16901;DHT22;8567;52.540;6.434;2022-07-22T07:17:09;25.10;55.10
16901;DHT22;8567;52.540;6.434;2022-07-22T07:19:36;25.10;55.10
16901;DHT22;8567;52.540;6.434;2022-07-22T07:22:04;25.20;54.30
16901;DHT22;8567;52.540;6.434;2022-07-22T07:24:31;25.20;53.60
16901;DHT22;8567;52.540;6.434;2022-07-22T07:26:58;25.10;53.10
16901;DHT22;8567;52.540;6.434;2022-07-22T07:29:24;25.20;53.70
16901;DHT22;8567;52.540;6.434;2022-07-22T07:31:51;25.20;54.10
16901;DHT22;8567;52.540;6.434;2022-07-22T07:34:18;25.20;54.00
16901;DHT22;8567;52.540;6.434;2022-07-22T07:36:44;25.20;54.00
16901;DHT22;8567;52.540;6.434;2022-07-22T07:39:12;25.20;54.00
16901;DHT22;8567;52.540;6.434;2022-07-22T07:41:39;25.30;54.60
16901;DHT22;8567;52.540;6.434;2022-07-22T07:44:06;25.50;54.10
16901;DHT22;8567;52.540;6.434;2022-07-22T07:46:33;25.70;54.40
16901;DHT22;8567;52.540;6.434;2022-07-22T07:49:00;25.60;54.10
16901;DHT22;8567;52.540;6.434;2022-07-22T07:51:27;25.50;53.30
16901;DHT22;8567;52.540;6.434;2022-07-22T07:53:54;25.50;53.30
16901;DHT22;8567;52.540;6.434;2022-07-22T07:56:22;25.60;53.20
16901;DHT22;8567;52.540;6.434;2022-07-22T07:58:49;25.70;53.30
16901;DHT22;8567;52.540;6.434;2022-07-22T08:01:16;25.80;53.20
16901;DHT22;8567;52.540;6.434;2022-07-22T08:03:42;25.80;53.20
16901;DHT22;8567;52.540;6.434;2022-07-22T08:06:09;25.70;53.00
16901;DHT22;8567;52.540;6.434;2022-07-22T08:08:37;25.70;52.90
16901;DHT22;8567;52.540;6.434;2022-07-22T08:11:03;25.70;52.70
16901;DHT22;8567;52.540;6.434;2022-07-22T08:13:32;25.80;52.90
16901;DHT22;8567;52.540;6.434;2022-07-22T08:15:59;25.90;52.70
16901;DHT22;8567;52.540;6.434;2022-07-22T08:18:26;25.90;52.50
16901;DHT22;8567;52.540;6.434;2022-07-22T08:20:53;26.00;52.40
16901;DHT22;8567;52.540;6.434;2022-07-22T08:23:20;25.90;52.40
16901;DHT22;8567;52.540;6.434;2022-07-22T08:25:47;25.90;52.80
16901;DHT22;8567;52.540;6.434;2022-07-22T08:28:14;26.00;52.30
16901;DHT22;8567;52.540;6.434;2022-07-22T08:30:42;26.00;52.10
16901;DHT22;8567;52.540;6.434;2022-07-22T08:33:09;26.10;52.40
16901;DHT22;8567;52.540;6.434;2022-07-22T08:35:36;26.10;52.20
16901;DHT22;8567;52.540;6.434;2022-07-22T08:38:03;26.00;52.60
16901;DHT22;8567;52.540;6.434;2022-07-22T08:40:30;26.00;52.30
16901;DHT22;8567;52.540;6.434;2022-07-22T08:42:57;26.00;52.30
16901;DHT22;8567;52.540;6.434;2022-07-22T08:45:28;26.00;52.30
16901;DHT22;8567;52.540;6.434;2022-07-22T08:47:56;26.00;52.20
16901;DHT22;8567;52.540;6.434;2022-07-22T08:50:24;26.00;52.40
16901;DHT22;8567;52.540;6.434;2022-07-22T08:52:51;26.00;52.60
16901;DHT22;8567;52.540;6.434;2022-07-22T08:55:17;26.00;52.50
16901;DHT22;8567;52.540;6.434;2022-07-22T08:57:45;25.90;52.40
16901;DHT22;8567;52.540;6.434;2022-07-22T09:00:17;25.90;52.70
16901;DHT22;8567;52.540;6.434;2022-07-22T09:02:44;26.00;52.50
16901;DHT22;8567;52.540;6.434;2022-07-22T09:05:13;26.10;52.00
16901;DHT22;8567;52.540;6.434;2022-07-22T09:07:42;26.10;52.80
16901;DHT22;8567;52.540;6.434;2022-07-22T09:10:11;26.10;51.80
16901;DHT22;8567;52.540;6.434;2022-07-22T09:12:51;26.20;51.80
16901;DHT22;8567;52.540;6.434;2022-07-22T09:15:25;26.20;51.90
16901;DHT22;8567;52.540;6.434;2022-07-22T09:17:53;26.20;52.00
16901;DHT22;8567;52.540;6.434;2022-07-22T09:20:21;26.30;51.90
16901;DHT22;8567;52.540;6.434;2022-07-22T09:22:49;26.40;52.70
16901;DHT22;8567;52.540;6.434;2022-07-22T09:25:27;26.30;51.70
16901;DHT22;8567;52.540;6.434;2022-07-22T09:27:56;26.30;52.10
16901;DHT22;8567;52.540;6.434;2022-07-22T09:30:37;26.30;52.10
16901;DHT22;8567;52.540;6.434;2022-07-22T09:33:06;26.40;51.30
16901;DHT22;8567;52.540;6.434;2022-07-22T09:35:34;26.50;51.00
16901;DHT22;8567;52.540;6.434;2022-07-22T09:38:03;26.50;51.50
16901;DHT22;8567;52.540;6.434;2022-07-22T09:40:31;26.50;51.30
16901;DHT22;8567;52.540;6.434;2022-07-22T09:43:01;26.50;51.40
16901;DHT22;8567;52.540;6.434;2022-07-22T09:45:29;26.60;51.00
16901;DHT22;8567;52.540;6.434;2022-07-22T09:47:58;26.50;51.20
16901;DHT22;8567;52.540;6.434;2022-07-22T09:50:26;26.50;51.50
16901;DHT22;8567;52.540;6.434;2022-07-22T09:52:57;26.60;51.30
16901;DHT22;8567;52.540;6.434;2022-07-22T09:55:25;26.40;51.30
16901;DHT22;8567;52.540;6.434;2022-07-22T09:57:53;26.40;52.00
16901;DHT22;8567;52.540;6.434;2022-07-22T10:00:22;26.40;50.50
16901;DHT22;8567;52.540;6.434;2022-07-22T10:02:50;26.40;51.50
16901;DHT22;8567;52.540;6.434;2022-07-22T10:05:20;26.50;50.10
16901;DHT22;8567;52.540;6.434;2022-07-22T10:07:49;26.50;49.90
16901;DHT22;8567;52.540;6.434;2022-07-22T10:10:18;26.50;50.20
16901;DHT22;8567;52.540;6.434;2022-07-22T10:12:48;26.50;49.80
16901;DHT22;8567;52.540;6.434;2022-07-22T10:15:16;26.50;49.70
16901;DHT22;8567;52.540;6.434;2022-07-22T10:17:46;26.50;50.50
16901;DHT22;8567;52.540;6.434;2022-07-22T10:20:16;26.50;49.70
16901;DHT22;8567;52.540;6.434;2022-07-22T10:22:49;26.50;49.80
16901;DHT22;8567;52.540;6.434;2022-07-22T10:25:21;26.40;49.90
16901;DHT22;8567;52.540;6.434;2022-07-22T10:27:51;26.40;50.30
16901;DHT22;8567;52.540;6.434;2022-07-22T10:30:20;26.40;50.40
16901;DHT22;8567;52.540;6.434;2022-07-22T10:33:01;26.40;50.20
16901;DHT22;8567;52.540;6.434;2022-07-22T10:35:30;26.50;50.00
16901;DHT22;8567;52.540;6.434;2022-07-22T10:38:02;26.60;50.30
16901;DHT22;8567;52.540;6.434;2022-07-22T10:40:45;26.60;50.50
16901;DHT22;8567;52.540;6.434;2022-07-22T10:43:13;26.60;50.50
16901;DHT22;8567;52.540;6.434;2022-07-22T10:45:45;26.50;50.60
16901;DHT22;8567;52.540;6.434;2022-07-22T10:48:15;26.40;50.60
16901;DHT22;8567;52.540;6.434;2022-07-22T10:50:51;26.40;50.50
16901;DHT22;8567;52.540;6.434;2022-07-22T10:53:22;26.40;50.50
16901;DHT22;8567;52.540;6.434;2022-07-22T10:56:06;26.40;50.80
16901;DHT22;8567;52.540;6.434;2022-07-22T11:01:27;26.40;50.90
16901;DHT22;8567;52.540;6.434;2022-07-22T11:03:56;26.10;48.60
16901;DHT22;8567;52.540;6.434;2022-07-22T11:06:33;25.90;47.80
16901;DHT22;8567;52.540;6.434;2022-07-22T11:09:02;25.80;47.50
16901;DHT22;8567;52.540;6.434;2022-07-22T11:11:43;25.80;46.20
16901;DHT22;8567;52.540;6.434;2022-07-22T11:14:14;25.70;45.80
16901;DHT22;8567;52.540;6.434;2022-07-22T11:16:42;25.60;45.30
16901;DHT22;8567;52.540;6.434;2022-07-22T11:19:09;25.50;45.20
16901;DHT22;8567;52.540;6.434;2022-07-22T11:21:36;25.50;45.30
16901;DHT22;8567;52.540;6.434;2022-07-22T11:24:05;25.50;45.10
16901;DHT22;8567;52.540;6.434;2022-07-22T11:26:37;25.50;44.70
16901;DHT22;8567;52.540;6.434;2022-07-22T11:29:06;25.50;44.70
16901;DHT22;8567;52.540;6.434;2022-07-22T11:31:33;25.20;44.30
16901;DHT22;8567;52.540;6.434;2022-07-22T11:34:08;24.80;45.20
16901;DHT22;8567;52.540;6.434;2022-07-22T11:36:36;24.60;45.50
16901;DHT22;8567;52.540;6.434;2022-07-22T11:39:04;24.60;45.30
16901;DHT22;8567;52.540;6.434;2022-07-22T11:41:32;24.50;45.00
16901;DHT22;8567;52.540;6.434;2022-07-22T11:44:00;24.40;45.40
16901;DHT22;8567;52.540;6.434;2022-07-22T11:46:27;24.40;45.60
16901;DHT22;8567;52.540;6.434;2022-07-22T11:48:55;24.30;45.60
16901;DHT22;8567;52.540;6.434;2022-07-22T11:51:29;24.20;45.50
16901;DHT22;8567;52.540;6.434;2022-07-22T11:53:57;24.20;45.50
16901;DHT22;8567;52.540;6.434;2022-07-22T11:56:24;24.10;45.30
16901;DHT22;8567;52.540;6.434;2022-07-22T11:58:52;24.10;45.40
16901;DHT22;8567;52.540;6.434;2022-07-22T12:01:23;24.20;45.10
16901;DHT22;8567;52.540;6.434;2022-07-22T12:03:52;24.20;45.10
16901;DHT22;8567;52.540;6.434;2022-07-22T12:06:21;24.20;45.30
16901;DHT22;8567;52.540;6.434;2022-07-22T12:08:51;24.20;44.70
16901;DHT22;8567;52.540;6.434;2022-07-22T12:11:18;24.10;45.30
16901;DHT22;8567;52.540;6.434;2022-07-22T12:13:47;24.00;45.20
16901;DHT22;8567;52.540;6.434;2022-07-22T12:16:25;23.90;45.10
16901;DHT22;8567;52.540;6.434;2022-07-22T12:18:54;23.90;45.30
16901;DHT22;8567;52.540;6.434;2022-07-22T12:21:22;23.90;45.40
16901;DHT22;8567;52.540;6.434;2022-07-22T12:23:50;23.90;45.60
16901;DHT22;8567;52.540;6.434;2022-07-22T12:26:18;23.90;45.60
16901;DHT22;8567;52.540;6.434;2022-07-22T12:28:45;23.90;45.70
16901;DHT22;8567;52.540;6.434;2022-07-22T12:31:11;23.90;45.90
16901;DHT22;8567;52.540;6.434;2022-07-22T12:33:48;24.00;46.10
16901;DHT22;8567;52.540;6.434;2022-07-22T12:36:15;24.00;46.10
16901;DHT22;8567;52.540;6.434;2022-07-22T12:38:42;24.00;45.90
16901;DHT22;8567;52.540;6.434;2022-07-22T12:41:22;24.00;45.80
16901;DHT22;8567;52.540;6.434;2022-07-22T12:43:50;24.00;45.60
16901;DHT22;8567;52.540;6.434;2022-07-22T12:46:18;23.90;45.60
16901;DHT22;8567;52.540;6.434;2022-07-22T12:48:50;23.80;45.90
16901;DHT22;8567;52.540;6.434;2022-07-22T12:51:18;23.80;45.70
16901;DHT22;8567;52.540;6.434;2022-07-22T12:53:45;23.80;46.20
16901;DHT22;8567;52.540;6.434;2022-07-22T12:56:12;23.80;46.90
16901;DHT22;8567;52.540;6.434;2022-07-22T12:58:38;23.70;46.90
16901;DHT22;8567;52.540;6.434;2022-07-22T13:01:07;23.70;46.50
16901;DHT22;8567;52.540;6.434;2022-07-22T13:03:34;23.60;46.50
16901;DHT22;8567;52.540;6.434;2022-07-22T13:06:04;23.60;46.70
16901;DHT22;8567;52.540;6.434;2022-07-22T13:08:32;23.80;46.70
16901;DHT22;8567;52.540;6.434;2022-07-22T13:10:59;23.80;47.20
16901;DHT22;8567;52.540;6.434;2022-07-22T13:13:26;23.90;46.50
16901;DHT22;8567;52.540;6.434;2022-07-22T13:15:53;23.90;46.40
16901;DHT22;8567;52.540;6.434;2022-07-22T13:18:20;24.00;46.50
16901;DHT22;8567;52.540;6.434;2022-07-22T13:20:48;24.10;46.90
16901;DHT22;8567;52.540;6.434;2022-07-22T13:23:16;24.10;46.90
16901;DHT22;8567;52.540;6.434;2022-07-22T13:25:43;24.10;46.90
16901;DHT22;8567;52.540;6.434;2022-07-22T13:28:10;24.20;47.10
16901;DHT22;8567;52.540;6.434;2022-07-22T13:30:37;24.20;47.10
16901;DHT22;8567;52.540;6.434;2022-07-22T13:33:03;24.20;46.90
16901;DHT22;8567;52.540;6.434;2022-07-22T13:35:30;24.20;47.10
16901;DHT22;8567;52.540;6.434;2022-07-22T13:37:57;24.20;46.80
16901;DHT22;8567;52.540;6.434;2022-07-22T13:40:26;24.20;46.90
16901;DHT22;8567;52.540;6.434;2022-07-22T13:42:53;24.10;47.20
16901;DHT22;8567;52.540;6.434;2022-07-22T13:45:20;24.00;47.40
16901;DHT22;8567;52.540;6.434;2022-07-22T13:47:47;24.00;47.30
16901;DHT22;8567;52.540;6.434;2022-07-22T13:50:13;24.20;47.00
16901;DHT22;8567;52.540;6.434;2022-07-22T13:52:40;24.20;47.10
16901;DHT22;8567;52.540;6.434;2022-07-22T13:55:08;24.30;47.10
16901;DHT22;8567;52.540;6.434;2022-07-22T13:57:36;24.30;47.30
16901;DHT22;8567;52.540;6.434;2022-07-22T14:00:04;24.30;46.90
16901;DHT22;8567;52.540;6.434;2022-07-22T14:02:31;24.30;47.00
16901;DHT22;8567;52.540;6.434;2022-07-22T14:04:58;24.30;46.90
16901;DHT22;8567;52.540;6.434;2022-07-22T14:07:25;24.30;46.90
16901;DHT22;8567;52.540;6.434;2022-07-22T14:09:52;24.40;46.60
16901;DHT22;8567;52.540;6.434;2022-07-22T14:12:19;24.40;46.80
16901;DHT22;8567;52.540;6.434;2022-07-22T14:14:47;24.60;46.60
16901;DHT22;8567;52.540;6.434;2022-07-22T14:17:13;24.50;46.40
16901;DHT22;8567;52.540;6.434;2022-07-22T14:19:40;24.40;46.60
16901;DHT22;8567;52.540;6.434;2022-07-22T14:22:07;24.40;46.80
16901;DHT22;8567;52.540;6.434;2022-07-22T14:24:34;24.30;46.90
16901;DHT22;8567;52.540;6.434;2022-07-22T14:27:00;24.30;47.00
16901;DHT22;8567;52.540;6.434;2022-07-22T14:29:27;24.20;46.90
16901;DHT22;8567;52.540;6.434;2022-07-22T14:31:55;24.20;47.00
16901;DHT22;8567;52.540;6.434;2022-07-22T14:34:23;24.20;47.00
16901;DHT22;8567;52.540;6.434;2022-07-22T14:36:49;24.30;46.80
16901;DHT22;8567;52.540;6.434;2022-07-22T14:39:16;24.30;47.40
16901;DHT22;8567;52.540;6.434;2022-07-22T14:41:43;24.60;46.40
16901;DHT22;8567;52.540;6.434;2022-07-22T14:44:11;24.50;46.90
16901;DHT22;8567;52.540;6.434;2022-07-22T14:46:38;24.50;46.20
16901;DHT22;8567;52.540;6.434;2022-07-22T14:49:06;24.40;46.40
16901;DHT22;8567;52.540;6.434;2022-07-22T14:51:33;24.50;46.70
16901;DHT22;8567;52.540;6.434;2022-07-22T14:54:00;24.50;46.90
16901;DHT22;8567;52.540;6.434;2022-07-22T14:56:27;24.50;46.70
16901;DHT22;8567;52.540;6.434;2022-07-22T14:58:54;24.40;46.60
16901;DHT22;8567;52.540;6.434;2022-07-22T15:01:21;24.60;46.30
16901;DHT22;8567;52.540;6.434;2022-07-22T15:03:48;24.60;46.20
16901;DHT22;8567;52.540;6.434;2022-07-22T15:06:16;24.50;46.30
16901;DHT22;8567;52.540;6.434;2022-07-22T15:08:43;24.40;46.40
16901;DHT22;8567;52.540;6.434;2022-07-22T15:11:10;24.40;46.30
16901;DHT22;8567;52.540;6.434;2022-07-22T15:13:37;24.50;46.90
16901;DHT22;8567;52.540;6.434;2022-07-22T15:16:04;24.50;47.10
16901;DHT22;8567;52.540;6.434;2022-07-22T15:18:31;24.60;46.90
16901;DHT22;8567;52.540;6.434;2022-07-22T15:20:58;24.60;46.80
16901;DHT22;8567;52.540;6.434;2022-07-22T15:23:26;24.50;46.50
16901;DHT22;8567;52.540;6.434;2022-07-22T15:25:55;24.50;46.60
16901;DHT22;8567;52.540;6.434;2022-07-22T15:28:22;24.40;46.40
16901;DHT22;8567;52.540;6.434;2022-07-22T15:30:49;24.30;45.80
16901;DHT22;8567;52.540;6.434;2022-07-22T15:33:15;24.20;46.00
16901;DHT22;8567;52.540;6.434;2022-07-22T15:35:42;24.20;46.20
16901;DHT22;8567;52.540;6.434;2022-07-22T15:38:10;24.20;46.40
16901;DHT22;8567;52.540;6.434;2022-07-22T15:40:38;24.20;46.50
16901;DHT22;8567;52.540;6.434;2022-07-22T15:43:05;24.30;46.40
16901;DHT22;8567;52.540;6.434;2022-07-22T15:45:31;24.40;46.50
16901;DHT22;8567;52.540;6.434;2022-07-22T15:47:59;24.40;46.90
16901;DHT22;8567;52.540;6.434;2022-07-22T15:50:27;24.50;46.90